Nearby METAR Reports

 

EGFF - Cardiff-Wales Ar, United Kingdom
Distance from station: SE 22km
Updated: 29/07/2021 22:50
Light rain, Thunderstorm
Light rain, Thunderstorm
 Wind from SE
Wind: SE 13 mph , 20 km/h
Temperature: 14°C
Dew Point: 13°C
Humidity: 94%
Barometer: 1006 hPa
Summary: Light rain
Clouds: Thunderstorm
Visibility: 6 miles , 10 km
Cloud details: Mostly cloudy 366 m
Overcast 671 m
2021/07/29 21:50 EGFF 292150Z AUTO 14011KT 9999 -RA BKN012/// OVC022/// //////TCU 14/13 Q1006 RERA